sensor_id;sensor_type;location;lat;lon;timestamp;P1;durP1;ratioP1;P2;durP2;ratioP2
14394;SDS011;7282;49.204;10.652;2024-03-08T00:00:16;33.33;;;22.83;;
14394;SDS011;7282;49.204;10.652;2024-03-08T00:02:45;33.73;;;21.77;;
14394;SDS011;7282;49.204;10.652;2024-03-08T00:05:12;32.37;;;21.73;;
14394;SDS011;7282;49.204;10.652;2024-03-08T00:07:40;35.00;;;23.00;;
14394;SDS011;7282;49.204;10.652;2024-03-08T00:10:07;33.53;;;23.70;;
14394;SDS011;7282;49.204;10.652;2024-03-08T00:12:42;37.70;;;24.07;;
14394;SDS011;7282;49.204;10.652;2024-03-08T00:15:08;36.67;;;23.17;;
14394;SDS011;7282;49.204;10.652;2024-03-08T00:17:36;33.73;;;23.53;;
14394;SDS011;7282;49.204;10.652;2024-03-08T00:20:04;37.43;;;24.00;;
14394;SDS011;7282;49.204;10.652;2024-03-08T00:22:33;31.80;;;21.57;;
14394;SDS011;7282;49.204;10.652;2024-03-08T00:24:59;31.77;;;22.60;;
14394;SDS011;7282;49.204;10.652;2024-03-08T00:27:26;37.13;;;24.37;;
14394;SDS011;7282;49.204;10.652;2024-03-08T00:29:53;34.90;;;23.00;;
14394;SDS011;7282;49.204;10.652;2024-03-08T00:32:19;33.57;;;23.13;;
14394;SDS011;7282;49.204;10.652;2024-03-08T00:34:47;35.87;;;22.70;;
14394;SDS011;7282;49.204;10.652;2024-03-08T00:37:13;36.20;;;22.90;;
14394;SDS011;7282;49.204;10.652;2024-03-08T00:39:41;36.67;;;23.97;;
14394;SDS011;7282;49.204;10.652;2024-03-08T00:42:08;34.40;;;23.63;;
14394;SDS011;7282;49.204;10.652;2024-03-08T00:44:34;37.40;;;24.20;;
14394;SDS011;7282;49.204;10.652;2024-03-08T00:47:01;35.60;;;23.00;;
14394;SDS011;7282;49.204;10.652;2024-03-08T00:49:29;35.20;;;22.80;;
14394;SDS011;7282;49.204;10.652;2024-03-08T00:51:56;36.40;;;24.50;;
14394;SDS011;7282;49.204;10.652;2024-03-08T00:54:23;36.57;;;24.07;;
14394;SDS011;7282;49.204;10.652;2024-03-08T00:56:50;36.00;;;23.83;;
14394;SDS011;7282;49.204;10.652;2024-03-08T00:59:17;34.73;;;23.20;;
14394;SDS011;7282;49.204;10.652;2024-03-08T01:01:43;35.20;;;23.43;;
14394;SDS011;7282;49.204;10.652;2024-03-08T01:04:11;35.67;;;24.40;;
14394;SDS011;7282;49.204;10.652;2024-03-08T01:06:38;38.57;;;25.00;;
14394;SDS011;7282;49.204;10.652;2024-03-08T01:09:04;37.00;;;23.80;;
14394;SDS011;7282;49.204;10.652;2024-03-08T01:11:33;36.40;;;24.70;;
14394;SDS011;7282;49.204;10.652;2024-03-08T01:14:00;37.90;;;23.27;;
14394;SDS011;7282;49.204;10.652;2024-03-08T01:16:32;37.40;;;23.53;;
14394;SDS011;7282;49.204;10.652;2024-03-08T01:18:55;35.40;;;23.90;;
14394;SDS011;7282;49.204;10.652;2024-03-08T01:21:22;36.83;;;24.37;;
14394;SDS011;7282;49.204;10.652;2024-03-08T01:23:49;38.87;;;25.33;;
14394;SDS011;7282;49.204;10.652;2024-03-08T01:26:16;38.67;;;25.17;;
14394;SDS011;7282;49.204;10.652;2024-03-08T01:28:42;38.93;;;25.10;;
14394;SDS011;7282;49.204;10.652;2024-03-08T01:31:09;34.90;;;23.40;;
14394;SDS011;7282;49.204;10.652;2024-03-08T01:33:36;41.27;;;25.50;;
14394;SDS011;7282;49.204;10.652;2024-03-08T01:36:03;38.77;;;23.83;;
14394;SDS011;7282;49.204;10.652;2024-03-08T01:38:29;37.63;;;24.03;;
14394;SDS011;7282;49.204;10.652;2024-03-08T01:40:56;37.13;;;23.97;;
14394;SDS011;7282;49.204;10.652;2024-03-08T01:43:27;40.07;;;26.20;;
14394;SDS011;7282;49.204;10.652;2024-03-08T01:45:57;38.53;;;24.30;;
14394;SDS011;7282;49.204;10.652;2024-03-08T01:48:26;40.50;;;25.53;;
14394;SDS011;7282;49.204;10.652;2024-03-08T01:50:53;41.67;;;26.10;;
14394;SDS011;7282;49.204;10.652;2024-03-08T01:53:21;42.30;;;26.77;;
14394;SDS011;7282;49.204;10.652;2024-03-08T01:55:48;40.27;;;24.60;;
14394;SDS011;7282;49.204;10.652;2024-03-08T01:58:16;37.87;;;24.53;;
14394;SDS011;7282;49.204;10.652;2024-03-08T02:00:46;41.57;;;25.93;;
14394;SDS011;7282;49.204;10.652;2024-03-08T02:03:15;38.17;;;24.10;;
14394;SDS011;7282;49.204;10.652;2024-03-08T02:05:42;39.83;;;25.80;;
14394;SDS011;7282;49.204;10.652;2024-03-08T02:08:09;38.97;;;25.17;;
14394;SDS011;7282;49.204;10.652;2024-03-08T02:10:44;41.10;;;25.30;;
14394;SDS011;7282;49.204;10.652;2024-03-08T02:13:10;40.57;;;24.37;;
14394;SDS011;7282;49.204;10.652;2024-03-08T02:18:23;39.20;;;25.10;;
14394;SDS011;7282;49.204;10.652;2024-03-08T02:20:50;34.70;;;23.83;;
14394;SDS011;7282;49.204;10.652;2024-03-08T02:23:18;39.13;;;24.73;;
14394;SDS011;7282;49.204;10.652;2024-03-08T02:25:46;40.67;;;25.93;;
14394;SDS011;7282;49.204;10.652;2024-03-08T02:28:13;41.67;;;26.83;;
14394;SDS011;7282;49.204;10.652;2024-03-08T02:30:40;45.53;;;26.63;;
14394;SDS011;7282;49.204;10.652;2024-03-08T02:33:07;43.10;;;25.07;;
14394;SDS011;7282;49.204;10.652;2024-03-08T02:35:36;39.97;;;25.40;;
14394;SDS011;7282;49.204;10.652;2024-03-08T02:38:04;41.27;;;26.07;;
14394;SDS011;7282;49.204;10.652;2024-03-08T02:40:30;39.63;;;26.23;;
14394;SDS011;7282;49.204;10.652;2024-03-08T02:42:58;38.87;;;26.57;;
14394;SDS011;7282;49.204;10.652;2024-03-08T02:45:24;40.63;;;25.87;;
14394;SDS011;7282;49.204;10.652;2024-03-08T02:47:51;39.83;;;26.23;;
14394;SDS011;7282;49.204;10.652;2024-03-08T02:50:18;41.47;;;26.53;;
14394;SDS011;7282;49.204;10.652;2024-03-08T02:52:44;39.40;;;24.87;;
14394;SDS011;7282;49.204;10.652;2024-03-08T02:55:12;38.47;;;26.23;;
14394;SDS011;7282;49.204;10.652;2024-03-08T02:57:41;43.83;;;26.13;;
14394;SDS011;7282;49.204;10.652;2024-03-08T03:00:08;41.53;;;27.00;;
14394;SDS011;7282;49.204;10.652;2024-03-08T03:02:39;42.70;;;27.37;;
14394;SDS011;7282;49.204;10.652;2024-03-08T03:05:05;41.47;;;26.93;;
14394;SDS011;7282;49.204;10.652;2024-03-08T03:07:32;45.53;;;26.97;;
14394;SDS011;7282;49.204;10.652;2024-03-08T03:10:02;42.07;;;26.93;;
14394;SDS011;7282;49.204;10.652;2024-03-08T03:12:29;42.60;;;26.67;;
14394;SDS011;7282;49.204;10.652;2024-03-08T03:15:01;43.53;;;28.03;;
14394;SDS011;7282;49.204;10.652;2024-03-08T03:17:24;44.70;;;26.60;;
14394;SDS011;7282;49.204;10.652;2024-03-08T03:19:51;49.13;;;28.17;;
14394;SDS011;7282;49.204;10.652;2024-03-08T03:22:19;44.43;;;27.87;;
14394;SDS011;7282;49.204;10.652;2024-03-08T03:24:45;43.47;;;28.33;;
14394;SDS011;7282;49.204;10.652;2024-03-08T03:27:17;42.37;;;27.23;;
14394;SDS011;7282;49.204;10.652;2024-03-08T03:29:44;42.17;;;28.63;;
14394;SDS011;7282;49.204;10.652;2024-03-08T03:35:09;47.43;;;29.67;;
14394;SDS011;7282;49.204;10.652;2024-03-08T03:37:37;42.80;;;27.33;;
14394;SDS011;7282;49.204;10.652;2024-03-08T03:40:06;48.87;;;28.73;;
14394;SDS011;7282;49.204;10.652;2024-03-08T03:42:34;47.70;;;30.23;;
14394;SDS011;7282;49.204;10.652;2024-03-08T03:45:01;48.20;;;29.67;;
14394;SDS011;7282;49.204;10.652;2024-03-08T03:47:28;50.73;;;30.97;;
14394;SDS011;7282;49.204;10.652;2024-03-08T03:49:55;46.50;;;29.67;;
14394;SDS011;7282;49.204;10.652;2024-03-08T03:52:22;50.67;;;29.70;;
14394;SDS011;7282;49.204;10.652;2024-03-08T03:54:48;48.27;;;30.27;;
14394;SDS011;7282;49.204;10.652;2024-03-08T03:57:15;49.47;;;29.87;;
14394;SDS011;7282;49.204;10.652;2024-03-08T03:59:42;48.60;;;30.90;;
14394;SDS011;7282;49.204;10.652;2024-03-08T04:02:08;47.20;;;30.57;;
14394;SDS011;7282;49.204;10.652;2024-03-08T04:04:35;47.80;;;30.57;;
14394;SDS011;7282;49.204;10.652;2024-03-08T04:07:02;49.07;;;29.80;;
14394;SDS011;7282;49.204;10.652;2024-03-08T04:09:29;48.70;;;30.10;;
14394;SDS011;7282;49.204;10.652;2024-03-08T04:11:55;50.27;;;29.73;;
14394;SDS011;7282;49.204;10.652;2024-03-08T04:14:23;48.43;;;29.93;;
14394;SDS011;7282;49.204;10.652;2024-03-08T04:16:49;51.33;;;30.17;;
14394;SDS011;7282;49.204;10.652;2024-03-08T04:19:16;50.07;;;31.10;;
14394;SDS011;7282;49.204;10.652;2024-03-08T04:21:43;51.13;;;30.10;;
14394;SDS011;7282;49.204;10.652;2024-03-08T04:24:09;52.47;;;31.93;;
14394;SDS011;7282;49.204;10.652;2024-03-08T04:26:36;51.73;;;30.97;;
14394;SDS011;7282;49.204;10.652;2024-03-08T04:29:03;51.37;;;30.47;;
14394;SDS011;7282;49.204;10.652;2024-03-08T04:31:30;47.60;;;29.97;;
14394;SDS011;7282;49.204;10.652;2024-03-08T04:33:57;51.10;;;30.63;;
14394;SDS011;7282;49.204;10.652;2024-03-08T04:36:24;50.37;;;31.00;;
14394;SDS011;7282;49.204;10.652;2024-03-08T04:38:50;51.53;;;29.80;;
14394;SDS011;7282;49.204;10.652;2024-03-08T04:41:17;52.83;;;30.63;;
14394;SDS011;7282;49.204;10.652;2024-03-08T04:43:44;50.67;;;32.13;;
14394;SDS011;7282;49.204;10.652;2024-03-08T04:46:11;50.70;;;31.83;;
14394;SDS011;7282;49.204;10.652;2024-03-08T04:48:38;54.57;;;32.97;;
14394;SDS011;7282;49.204;10.652;2024-03-08T04:51:04;50.10;;;30.70;;
14394;SDS011;7282;49.204;10.652;2024-03-08T04:53:31;50.77;;;31.60;;
14394;SDS011;7282;49.204;10.652;2024-03-08T04:56:00;52.23;;;32.00;;
14394;SDS011;7282;49.204;10.652;2024-03-08T04:58:28;51.97;;;31.73;;
14394;SDS011;7282;49.204;10.652;2024-03-08T05:00:55;54.17;;;31.70;;
14394;SDS011;7282;49.204;10.652;2024-03-08T05:03:22;52.13;;;31.80;;
14394;SDS011;7282;49.204;10.652;2024-03-08T05:05:50;52.83;;;32.13;;
14394;SDS011;7282;49.204;10.652;2024-03-08T05:08:17;49.87;;;31.10;;
14394;SDS011;7282;49.204;10.652;2024-03-08T05:10:47;55.73;;;33.40;;
14394;SDS011;7282;49.204;10.652;2024-03-08T05:13:14;49.93;;;32.07;;
14394;SDS011;7282;49.204;10.652;2024-03-08T05:15:42;57.63;;;33.60;;
14394;SDS011;7282;49.204;10.652;2024-03-08T05:18:10;56.80;;;33.90;;
14394;SDS011;7282;49.204;10.652;2024-03-08T05:20:37;54.70;;;33.77;;
14394;SDS011;7282;49.204;10.652;2024-03-08T05:23:04;50.67;;;32.57;;
14394;SDS011;7282;49.204;10.652;2024-03-08T05:25:31;52.20;;;31.17;;
14394;SDS011;7282;49.204;10.652;2024-03-08T05:27:58;54.73;;;32.73;;
14394;SDS011;7282;49.204;10.652;2024-03-08T05:30:24;55.10;;;33.10;;
14394;SDS011;7282;49.204;10.652;2024-03-08T05:32:51;54.37;;;32.93;;
14394;SDS011;7282;49.204;10.652;2024-03-08T05:35:18;53.40;;;32.50;;
14394;SDS011;7282;49.204;10.652;2024-03-08T05:37:45;50.63;;;32.37;;
14394;SDS011;7282;49.204;10.652;2024-03-08T05:40:11;56.87;;;31.93;;
14394;SDS011;7282;49.204;10.652;2024-03-08T05:42:38;53.17;;;31.20;;
14394;SDS011;7282;49.204;10.652;2024-03-08T05:45:05;49.67;;;31.60;;
14394;SDS011;7282;49.204;10.652;2024-03-08T05:47:38;53.87;;;32.13;;
14394;SDS011;7282;49.204;10.652;2024-03-08T05:50:05;57.83;;;34.13;;
14394;SDS011;7282;49.204;10.652;2024-03-08T05:52:34;59.30;;;36.63;;
14394;SDS011;7282;49.204;10.652;2024-03-08T05:55:01;58.37;;;35.47;;
14394;SDS011;7282;49.204;10.652;2024-03-08T05:57:28;54.30;;;33.03;;
14394;SDS011;7282;49.204;10.652;2024-03-08T05:59:55;61.47;;;34.80;;
14394;SDS011;7282;49.204;10.652;2024-03-08T06:02:22;57.33;;;34.20;;
14394;SDS011;7282;49.204;10.652;2024-03-08T06:04:48;59.87;;;33.67;;
14394;SDS011;7282;49.204;10.652;2024-03-08T06:07:15;52.30;;;32.87;;
14394;SDS011;7282;49.204;10.652;2024-03-08T06:09:43;59.33;;;35.70;;
14394;SDS011;7282;49.204;10.652;2024-03-08T06:12:14;57.20;;;34.07;;
14394;SDS011;7282;49.204;10.652;2024-03-08T06:14:42;57.47;;;34.17;;
14394;SDS011;7282;49.204;10.652;2024-03-08T06:17:09;57.13;;;32.87;;
14394;SDS011;7282;49.204;10.652;2024-03-08T06:19:37;56.93;;;32.90;;
14394;SDS011;7282;49.204;10.652;2024-03-08T06:22:03;53.73;;;32.47;;
14394;SDS011;7282;49.204;10.652;2024-03-08T06:24:32;58.83;;;33.87;;
14394;SDS011;7282;49.204;10.652;2024-03-08T06:26:58;54.80;;;34.30;;
14394;SDS011;7282;49.204;10.652;2024-03-08T06:29:25;54.60;;;33.60;;
14394;SDS011;7282;49.204;10.652;2024-03-08T06:31:52;48.90;;;32.13;;
14394;SDS011;7282;49.204;10.652;2024-03-08T06:34:19;54.23;;;33.27;;
14394;SDS011;7282;49.204;10.652;2024-03-08T06:36:46;51.00;;;33.17;;
14394;SDS011;7282;49.204;10.652;2024-03-08T06:39:13;56.47;;;32.97;;
14394;SDS011;7282;49.204;10.652;2024-03-08T06:41:39;52.97;;;33.63;;
14394;SDS011;7282;49.204;10.652;2024-03-08T06:44:06;55.43;;;32.83;;
14394;SDS011;7282;49.204;10.652;2024-03-08T06:46:34;54.87;;;33.27;;
14394;SDS011;7282;49.204;10.652;2024-03-08T06:49:01;55.00;;;33.57;;
14394;SDS011;7282;49.204;10.652;2024-03-08T06:51:29;51.47;;;32.57;;
14394;SDS011;7282;49.204;10.652;2024-03-08T06:53:56;52.33;;;33.27;;
14394;SDS011;7282;49.204;10.652;2024-03-08T06:56:23;54.67;;;33.97;;
14394;SDS011;7282;49.204;10.652;2024-03-08T06:58:51;53.47;;;33.67;;
14394;SDS011;7282;49.204;10.652;2024-03-08T07:01:18;49.77;;;31.27;;
14394;SDS011;7282;49.204;10.652;2024-03-08T07:03:44;48.73;;;33.00;;
14394;SDS011;7282;49.204;10.652;2024-03-08T07:06:11;49.40;;;33.60;;
14394;SDS011;7282;49.204;10.652;2024-03-08T07:08:38;48.40;;;32.40;;
14394;SDS011;7282;49.204;10.652;2024-03-08T07:11:05;48.23;;;31.33;;
14394;SDS011;7282;49.204;10.652;2024-03-08T07:13:32;48.50;;;31.97;;
14394;SDS011;7282;49.204;10.652;2024-03-08T07:15:58;46.57;;;31.60;;
14394;SDS011;7282;49.204;10.652;2024-03-08T07:18:27;47.73;;;30.67;;
14394;SDS011;7282;49.204;10.652;2024-03-08T07:20:53;44.60;;;30.37;;
14394;SDS011;7282;49.204;10.652;2024-03-08T07:23:20;48.00;;;31.43;;
14394;SDS011;7282;49.204;10.652;2024-03-08T07:25:51;42.60;;;28.97;;
14394;SDS011;7282;49.204;10.652;2024-03-08T07:28:18;47.03;;;31.13;;
14394;SDS011;7282;49.204;10.652;2024-03-08T07:30:45;42.03;;;29.90;;
14394;SDS011;7282;49.204;10.652;2024-03-08T07:33:13;48.87;;;31.10;;
14394;SDS011;7282;49.204;10.652;2024-03-08T07:35:40;43.70;;;28.43;;
14394;SDS011;7282;49.204;10.652;2024-03-08T07:38:08;43.20;;;28.53;;
14394;SDS011;7282;49.204;10.652;2024-03-08T07:40:36;40.87;;;29.00;;
14394;SDS011;7282;49.204;10.652;2024-03-08T07:43:04;40.10;;;27.47;;
14394;SDS011;7282;49.204;10.652;2024-03-08T07:45:31;42.13;;;27.37;;
14394;SDS011;7282;49.204;10.652;2024-03-08T07:47:57;40.67;;;27.30;;
14394;SDS011;7282;49.204;10.652;2024-03-08T07:50:24;38.10;;;26.97;;
14394;SDS011;7282;49.204;10.652;2024-03-08T07:52:51;41.33;;;28.07;;
14394;SDS011;7282;49.204;10.652;2024-03-08T07:55:18;37.77;;;27.13;;
14394;SDS011;7282;49.204;10.652;2024-03-08T07:57:45;36.50;;;26.73;;
14394;SDS011;7282;49.204;10.652;2024-03-08T08:00:13;38.40;;;26.93;;
14394;SDS011;7282;49.204;10.652;2024-03-08T08:02:42;37.50;;;25.00;;
14394;SDS011;7282;49.204;10.652;2024-03-08T08:05:09;35.27;;;24.67;;
14394;SDS011;7282;49.204;10.652;2024-03-08T08:07:36;36.67;;;25.40;;
14394;SDS011;7282;49.204;10.652;2024-03-08T08:10:03;36.43;;;25.63;;
14394;SDS011;7282;49.204;10.652;2024-03-08T08:12:32;34.43;;;24.93;;
14394;SDS011;7282;49.204;10.652;2024-03-08T08:15:00;33.97;;;24.17;;
14394;SDS011;7282;49.204;10.652;2024-03-08T08:17:27;38.63;;;24.60;;
14394;SDS011;7282;49.204;10.652;2024-03-08T08:19:54;33.10;;;24.63;;
14394;SDS011;7282;49.204;10.652;2024-03-08T08:22:21;31.70;;;23.00;;
14394;SDS011;7282;49.204;10.652;2024-03-08T08:24:48;30.20;;;22.33;;
14394;SDS011;7282;49.204;10.652;2024-03-08T08:27:15;31.60;;;22.10;;
14394;SDS011;7282;49.204;10.652;2024-03-08T08:32:35;28.30;;;21.33;;
14394;SDS011;7282;49.204;10.652;2024-03-08T08:35:06;30.80;;;21.83;;
14394;SDS011;7282;49.204;10.652;2024-03-08T08:37:33;27.63;;;20.40;;
14394;SDS011;7282;49.204;10.652;2024-03-08T08:40:02;30.43;;;21.23;;
14394;SDS011;7282;49.204;10.652;2024-03-08T08:42:31;27.90;;;20.40;;
14394;SDS011;7282;49.204;10.652;2024-03-08T08:44:58;26.03;;;19.93;;
14394;SDS011;7282;49.204;10.652;2024-03-08T08:47:24;28.77;;;21.27;;
14394;SDS011;7282;49.204;10.652;2024-03-08T08:49:51;28.77;;;20.83;;
14394;SDS011;7282;49.204;10.652;2024-03-08T08:52:18;27.67;;;20.53;;
14394;SDS011;7282;49.204;10.652;2024-03-08T08:54:45;25.63;;;19.63;;
14394;SDS011;7282;49.204;10.652;2024-03-08T08:57:12;25.23;;;19.53;;
14394;SDS011;7282;49.204;10.652;2024-03-08T08:59:39;25.50;;;18.70;;
14394;SDS011;7282;49.204;10.652;2024-03-08T09:02:06;26.10;;;19.57;;
14394;SDS011;7282;49.204;10.652;2024-03-08T09:04:34;27.10;;;20.40;;
14394;SDS011;7282;49.204;10.652;2024-03-08T09:07:01;28.20;;;20.53;;
14394;SDS011;7282;49.204;10.652;2024-03-08T09:09:28;27.10;;;19.20;;
14394;SDS011;7282;49.204;10.652;2024-03-08T09:11:55;28.53;;;21.03;;
14394;SDS011;7282;49.204;10.652;2024-03-08T09:14:22;24.93;;;18.93;;
14394;SDS011;7282;49.204;10.652;2024-03-08T09:16:49;27.90;;;18.80;;
14394;SDS011;7282;49.204;10.652;2024-03-08T09:19:15;26.90;;;18.43;;
14394;SDS011;7282;49.204;10.652;2024-03-08T09:21:43;23.43;;;17.67;;
14394;SDS011;7282;49.204;10.652;2024-03-08T09:24:09;22.47;;;18.13;;
14394;SDS011;7282;49.204;10.652;2024-03-08T09:26:36;24.30;;;17.93;;
14394;SDS011;7282;49.204;10.652;2024-03-08T09:29:03;22.83;;;17.27;;
14394;SDS011;7282;49.204;10.652;2024-03-08T09:31:32;23.83;;;17.43;;
14394;SDS011;7282;49.204;10.652;2024-03-08T09:34:02;25.33;;;17.00;;
14394;SDS011;7282;49.204;10.652;2024-03-08T09:36:29;24.37;;;17.27;;
14394;SDS011;7282;49.204;10.652;2024-03-08T09:38:56;21.53;;;16.27;;
14394;SDS011;7282;49.204;10.652;2024-03-08T09:41:22;22.40;;;16.80;;
14394;SDS011;7282;49.204;10.652;2024-03-08T09:43:49;21.60;;;17.33;;
14394;SDS011;7282;49.204;10.652;2024-03-08T09:46:16;24.33;;;17.77;;
14394;SDS011;7282;49.204;10.652;2024-03-08T09:48:45;22.40;;;16.63;;
14394;SDS011;7282;49.204;10.652;2024-03-08T09:51:12;22.67;;;17.47;;
14394;SDS011;7282;49.204;10.652;2024-03-08T09:53:41;22.57;;;16.53;;
14394;SDS011;7282;49.204;10.652;2024-03-08T09:56:12;20.53;;;15.50;;
14394;SDS011;7282;49.204;10.652;2024-03-08T09:58:39;22.40;;;15.60;;
14394;SDS011;7282;49.204;10.652;2024-03-08T10:01:10;20.77;;;16.10;;
14394;SDS011;7282;49.204;10.652;2024-03-08T10:03:37;21.87;;;14.93;;
14394;SDS011;7282;49.204;10.652;2024-03-08T10:06:04;24.03;;;16.43;;
14394;SDS011;7282;49.204;10.652;2024-03-08T10:08:32;20.87;;;15.70;;
14394;SDS011;7282;49.204;10.652;2024-03-08T10:11:00;20.10;;;15.67;;
14394;SDS011;7282;49.204;10.652;2024-03-08T10:13:27;21.20;;;15.57;;
14394;SDS011;7282;49.204;10.652;2024-03-08T10:15:54;21.77;;;15.67;;
14394;SDS011;7282;49.204;10.652;2024-03-08T10:18:21;21.13;;;15.37;;
14394;SDS011;7282;49.204;10.652;2024-03-08T10:21:06;24.90;;;15.87;;
14394;SDS011;7282;49.204;10.652;2024-03-08T10:23:33;21.73;;;15.87;;
14394;SDS011;7282;49.204;10.652;2024-03-08T10:26:21;21.13;;;15.47;;
14394;SDS011;7282;49.204;10.652;2024-03-08T10:28:28;21.43;;;15.57;;
14394;SDS011;7282;49.204;10.652;2024-03-08T10:30:55;18.97;;;15.00;;
14394;SDS011;7282;49.204;10.652;2024-03-08T10:33:22;19.57;;;14.97;;
14394;SDS011;7282;49.204;10.652;2024-03-08T10:35:49;18.00;;;14.30;;
14394;SDS011;7282;49.204;10.652;2024-03-08T10:38:16;20.00;;;15.87;;
14394;SDS011;7282;49.204;10.652;2024-03-08T10:40:45;19.93;;;14.90;;
14394;SDS011;7282;49.204;10.652;2024-03-08T10:43:22;20.20;;;14.77;;
14394;SDS011;7282;49.204;10.652;2024-03-08T10:45:40;19.23;;;15.43;;
14394;SDS011;7282;49.204;10.652;2024-03-08T10:48:16;21.90;;;15.87;;
14394;SDS011;7282;49.204;10.652;2024-03-08T10:50:37;19.30;;;14.50;;
14394;SDS011;7282;49.204;10.652;2024-03-08T10:53:04;19.80;;;15.07;;
14394;SDS011;7282;49.204;10.652;2024-03-08T10:55:33;20.83;;;14.73;;
14394;SDS011;7282;49.204;10.652;2024-03-08T10:58:00;19.27;;;13.97;;
14394;SDS011;7282;49.204;10.652;2024-03-08T11:00:26;19.97;;;14.20;;
14394;SDS011;7282;49.204;10.652;2024-03-08T11:02:53;23.50;;;15.20;;
14394;SDS011;7282;49.204;10.652;2024-03-08T11:05:39;17.37;;;14.20;;
14394;SDS011;7282;49.204;10.652;2024-03-08T11:10:52;16.53;;;13.30;;
14394;SDS011;7282;49.204;10.652;2024-03-08T11:13:32;19.17;;;14.87;;
14394;SDS011;7282;49.204;10.652;2024-03-08T11:16:00;17.70;;;14.73;;
14394;SDS011;7282;49.204;10.652;2024-03-08T11:18:27;17.27;;;13.77;;
14394;SDS011;7282;49.204;10.652;2024-03-08T11:20:54;17.23;;;13.43;;
14394;SDS011;7282;49.204;10.652;2024-03-08T11:23:23;15.17;;;12.63;;
14394;SDS011;7282;49.204;10.652;2024-03-08T11:25:52;15.97;;;13.30;;
14394;SDS011;7282;49.204;10.652;2024-03-08T11:28:19;16.57;;;12.67;;
14394;SDS011;7282;49.204;10.652;2024-03-08T11:33:29;16.87;;;12.07;;
14394;SDS011;7282;49.204;10.652;2024-03-08T11:36:02;14.70;;;11.73;;
14394;SDS011;7282;49.204;10.652;2024-03-08T11:38:32;16.50;;;12.93;;
14394;SDS011;7282;49.204;10.652;2024-03-08T11:40:59;15.70;;;12.40;;
14394;SDS011;7282;49.204;10.652;2024-03-08T11:43:26;17.17;;;12.33;;
14394;SDS011;7282;49.204;10.652;2024-03-08T11:46:07;17.53;;;12.73;;
14394;SDS011;7282;49.204;10.652;2024-03-08T11:48:21;16.87;;;13.60;;
14394;SDS011;7282;49.204;10.652;2024-03-08T11:50:51;14.77;;;12.07;;
14394;SDS011;7282;49.204;10.652;2024-03-08T11:53:16;19.30;;;13.40;;
14394;SDS011;7282;49.204;10.652;2024-03-08T11:55:43;15.63;;;12.97;;
14394;SDS011;7282;49.204;10.652;2024-03-08T11:58:09;15.73;;;12.77;;
14394;SDS011;7282;49.204;10.652;2024-03-08T12:00:38;15.30;;;11.63;;
14394;SDS011;7282;49.204;10.652;2024-03-08T12:03:05;14.93;;;12.30;;
14394;SDS011;7282;49.204;10.652;2024-03-08T12:05:33;14.17;;;11.70;;
14394;SDS011;7282;49.204;10.652;2024-03-08T12:08:00;13.90;;;10.73;;
14394;SDS011;7282;49.204;10.652;2024-03-08T12:10:27;12.60;;;10.63;;
14394;SDS011;7282;49.204;10.652;2024-03-08T12:12:55;13.83;;;11.17;;
14394;SDS011;7282;49.204;10.652;2024-03-08T12:15:23;15.43;;;11.40;;
14394;SDS011;7282;49.204;10.652;2024-03-08T12:17:50;14.30;;;11.67;;
14394;SDS011;7282;49.204;10.652;2024-03-08T12:20:18;17.87;;;12.37;;
14394;SDS011;7282;49.204;10.652;2024-03-08T12:22:45;15.37;;;11.37;;
14394;SDS011;7282;49.204;10.652;2024-03-08T12:25:12;16.10;;;12.43;;
14394;SDS011;7282;49.204;10.652;2024-03-08T12:27:39;14.50;;;12.23;;
14394;SDS011;7282;49.204;10.652;2024-03-08T12:30:20;15.87;;;12.17;;
14394;SDS011;7282;49.204;10.652;2024-03-08T12:32:47;14.60;;;11.57;;
14394;SDS011;7282;49.204;10.652;2024-03-08T12:35:14;15.17;;;11.57;;
14394;SDS011;7282;49.204;10.652;2024-03-08T12:37:41;14.40;;;11.37;;
14394;SDS011;7282;49.204;10.652;2024-03-08T12:40:08;13.37;;;11.07;;
14394;SDS011;7282;49.204;10.652;2024-03-08T12:42:35;13.83;;;10.67;;
14394;SDS011;7282;49.204;10.652;2024-03-08T12:45:03;14.70;;;11.07;;
14394;SDS011;7282;49.204;10.652;2024-03-08T12:47:32;13.17;;;11.77;;
14394;SDS011;7282;49.204;10.652;2024-03-08T12:49:59;20.30;;;13.07;;
14394;SDS011;7282;49.204;10.652;2024-03-08T12:52:26;14.03;;;11.53;;
14394;SDS011;7282;49.204;10.652;2024-03-08T12:54:52;13.40;;;11.00;;
14394;SDS011;7282;49.204;10.652;2024-03-08T12:57:19;14.03;;;11.03;;
14394;SDS011;7282;49.204;10.652;2024-03-08T12:59:46;16.07;;;10.87;;
14394;SDS011;7282;49.204;10.652;2024-03-08T13:02:13;13.23;;;10.87;;
14394;SDS011;7282;49.204;10.652;2024-03-08T13:04:39;14.57;;;11.07;;
14394;SDS011;7282;49.204;10.652;2024-03-08T13:07:06;12.57;;;10.70;;
14394;SDS011;7282;49.204;10.652;2024-03-08T13:09:33;12.17;;;9.97;;
14394;SDS011;7282;49.204;10.652;2024-03-08T13:12:02;11.57;;;10.07;;
14394;SDS011;7282;49.204;10.652;2024-03-08T13:14:28;12.40;;;10.30;;
14394;SDS011;7282;49.204;10.652;2024-03-08T13:16:57;11.93;;;9.70;;
14394;SDS011;7282;49.204;10.652;2024-03-08T13:19:25;10.53;;;9.33;;
14394;SDS011;7282;49.204;10.652;2024-03-08T13:21:53;11.27;;;9.50;;
14394;SDS011;7282;49.204;10.652;2024-03-08T13:24:20;9.90;;;8.90;;
14394;SDS011;7282;49.204;10.652;2024-03-08T13:26:48;10.70;;;9.60;;
14394;SDS011;7282;49.204;10.652;2024-03-08T13:29:16;12.07;;;9.43;;
14394;SDS011;7282;49.204;10.652;2024-03-08T13:31:44;9.33;;;8.33;;
14394;SDS011;7282;49.204;10.652;2024-03-08T13:34:11;10.80;;;9.70;;
14394;SDS011;7282;49.204;10.652;2024-03-08T13:36:37;13.00;;;9.53;;
14394;SDS011;7282;49.204;10.652;2024-03-08T13:39:06;9.23;;;8.33;;
14394;SDS011;7282;49.204;10.652;2024-03-08T13:41:34;10.90;;;9.10;;
14394;SDS011;7282;49.204;10.652;2024-03-08T13:44:01;9.80;;;8.80;;
14394;SDS011;7282;49.204;10.652;2024-03-08T13:46:29;9.70;;;8.70;;
14394;SDS011;7282;49.204;10.652;2024-03-08T13:48:56;10.57;;;9.43;;
14394;SDS011;7282;49.204;10.652;2024-03-08T13:51:23;10.27;;;8.53;;
14394;SDS011;7282;49.204;10.652;2024-03-08T13:53:51;9.23;;;8.27;;
14394;SDS011;7282;49.204;10.652;2024-03-08T13:56:18;9.90;;;8.83;;
14394;SDS011;7282;49.204;10.652;2024-03-08T13:58:44;9.87;;;8.33;;
14394;SDS011;7282;49.204;10.652;2024-03-08T14:01:11;9.57;;;8.13;;
14394;SDS011;7282;49.204;10.652;2024-03-08T14:03:38;8.87;;;7.67;;
14394;SDS011;7282;49.204;10.652;2024-03-08T14:06:06;8.97;;;7.60;;
14394;SDS011;7282;49.204;10.652;2024-03-08T14:08:33;8.73;;;7.83;;
14394;SDS011;7282;49.204;10.652;2024-03-08T14:11:00;9.50;;;8.50;;
14394;SDS011;7282;49.204;10.652;2024-03-08T14:13:28;9.30;;;8.33;;
14394;SDS011;7282;49.204;10.652;2024-03-08T14:15:55;9.30;;;7.93;;
14394;SDS011;7282;49.204;10.652;2024-03-08T14:18:22;9.03;;;8.13;;
14394;SDS011;7282;49.204;10.652;2024-03-08T14:20:49;9.60;;;8.40;;
14394;SDS011;7282;49.204;10.652;2024-03-08T14:23:17;8.63;;;7.80;;
14394;SDS011;7282;49.204;10.652;2024-03-08T14:25:43;10.00;;;6.90;;
14394;SDS011;7282;49.204;10.652;2024-03-08T14:28:10;9.63;;;7.67;;
14394;SDS011;7282;49.204;10.652;2024-03-08T14:30:38;10.10;;;7.97;;
14394;SDS011;7282;49.204;10.652;2024-03-08T14:33:07;8.13;;;7.30;;
14394;SDS011;7282;49.204;10.652;2024-03-08T14:35:36;8.30;;;7.40;;
14394;SDS011;7282;49.204;10.652;2024-03-08T14:38:03;9.87;;;7.70;;